Terminal Aerodrome Forecast
Issued by NWS Lake Charles, LA

Home | Current Version | Previous Version | Text Only | Print | Product List | Glossary On
Versions: 1 2 3 4 5 6 7 8 9 10 11 12 13 14 15 16 17
000
FTUS44 KLCH 161700
TAFLFT
TAF
KLFT 161724Z 1618/1718 VRB06KT P6SM VCTS SCT015 BKN035CB
      TEMPO 1618/1622 VRB15G25KT 3SM TSRA BKN015CB
     FM170200 VRB04KT P6SM BKN200=

USA.gov is the U.S. government's official web portal to all federal, state and local government web resources and services.